CheckWX is a tool to help pilots better visualize weather data.  It is not intended as a substitute for an official pre-flight weather briefing.

12:51:37 UTC

PABE METAR
Bethel Airport
Bethel, Alaska, USA
Current

59 mins ago

PABE 261153Z 13007KT 10SM -RA FEW032 SCT050 OVC065 17/14 A3000 RMK AO2 RAE1054B12 SLP159 P0000 60000 T01720139 10172 20172 53002 $
Observed
Jun-26 @ 11:53 UTC
Wind
  • 130° at 7 KTS
Visibility
10 SM
Flight Rules
VFR
Conditions
Light Rain
Cloud Levels
  • Few at 3,200' AGL
  • Scattered at 5,000' AGL
  • Overcast at 6,500' AGL
Temperature
17°C / 63°F
Dewpoint
14°C / 57°F
Humidity
83%
Altimeter
30" Hg
Pressure
1015.92 hPa
Current Rain
0.01"
Previous

2 hours ago

PABE 261053Z 11005KT 10SM -RA BKN044 OVC055 17/13 A2999 RMK AO2 RAB19 SLP156 P0000 T01720128 $
Observed
Jun-26 @ 10:53 UTC
Wind
  • 110° at 5 KTS
Visibility
10 SM
Flight Rules
VFR
Conditions
Light Rain
Cloud Levels
  • Broken at 4,400' AGL
  • Overcast at 5,500' AGL
Temperature
17°C / 63°F
Dewpoint
13°C / 55°F
Humidity
77%
Altimeter
29.99" Hg
Pressure
1015.62 hPa
Current Rain
0.01"
Previous

3 hours ago

PABE 260953Z 10006KT 10SM FEW049 BKN110 17/13 A2999 RMK AO2 SLP156 T01720128 $
Observed
Jun-26 @ 09:53 UTC
Wind
  • 100° at 6 KTS
Visibility
10 SM
Flight Rules
VFR
Cloud Levels
  • Few at 4,900' AGL
  • Broken at 11,000' AGL
Temperature
17°C / 63°F
Dewpoint
13°C / 55°F
Humidity
77%
Altimeter
29.99" Hg
Pressure
1015.62 hPa